KJGG

Williamsburg-Jamestown Airport

Williamsburg, Virginia, USA
METAR KJGG 250455Z AUTO 00000KT 10SM CLR 19/18 A3016 RMK AO1
Observed Flight Rules
May-25 @ 04:55 UTC (34 minutes ago) Visual Flight Rules
Visibility Clouds
10 miles
  • Clear skies
Temperatures Readings
Current 19°C / 66°F
Dewpoint 18°C / 64°F
Humidity 94%
Altimeter 30.16" Hg
Pressure 1021 hPa
Elevation 15
METAR KJGG 250455Z AUTO 00000KT 10SM CLR 19/18 A3016 RMK AO1
Observed Flight Rules
May-25 @ 04:55 UTC
(34 minutes ago)
VFR
Clouds
  • Clear skies
Temperature Dewpoint
19°C / 66°F 18°C / 64°F
Humidity Altimeter Pressure
94% 30.16" Hg 1021 hPa